Time;durP1;ratioP1;P1;durP2;ratioP2;P2;SDS_P1;SDS_P2;PMS_P1;PMS_P2;Temp;Humidity;BMP_temperature;BMP_pressure;BME280_temperature;BME280_humidity;BME280_pressure;Samples;Min_cycle;Max_cycle;Signal;HPM_P1;HPM_P2
2024/02/27 00:01:13;;;;;;;2.78;1.27;;;;;;;;;;10372818;28;20041;-60
2024/02/27 00:06:13;;;;;;;4.72;1.25;;;;;;;;;;10372914;28;20049;-60
2024/02/27 00:11:14;;;;;;;10.50;1.40;;;;;;;;;;10374020;28;20036;-61
2024/02/27 00:16:18;;;;;;;7.18;1.48;;;;;;;;;;10372888;28;20026;-61
2024/02/27 00:21:19;;;;;;;1.80;1.27;;;;;;;;;;10372630;28;20041;-60
2024/02/27 00:26:20;;;;;;;4.15;0.98;;;;;;;;;;10372091;28;20478;-60
2024/02/27 00:31:20;;;;;;;5.20;1.27;;;;;;;;;;10372442;28;20029;-61
2024/02/27 00:36:21;;;;;;;2.55;1.30;;;;;;;;;;10372147;28;20034;-61
2024/02/27 00:41:22;;;;;;;1.38;1.13;;;;;;;;;;10371352;28;20026;-61
2024/02/27 00:46:22;;;;;;;3.17;1.13;;;;;;;;;;10372377;28;20037;-61
2024/02/27 00:51:23;;;;;;;3.13;1.10;;;;;;;;;;10372139;28;20319;-60
2024/02/27 00:56:23;;;;;;;2.08;1.17;;;;;;;;;;10370968;28;20425;-60
2024/02/27 01:01:24;;;;;;;1.20;1.10;;;;;;;;;;10371268;28;20036;-61
2024/02/27 01:06:25;;;;;;;2.22;1.00;;;;;;;;;;10370415;28;20053;-61
2024/02/27 01:11:25;;;;;;;1.35;1.10;;;;;;;;;;10369776;28;20367;-61
2024/02/27 01:16:26;;;;;;;2.38;1.15;;;;;;;;;;10370678;28;20488;-61
2024/02/27 01:21:26;;;;;;;1.63;1.25;;;;;;;;;;10370567;28;20022;-61
2024/02/27 01:26:27;;;;;;;1.45;0.98;;;;;;;;;;10370768;28;20474;-61
2024/02/27 01:31:27;;;;;;;1.27;1.17;;;;;;;;;;10369559;28;20080;-61
2024/02/27 01:36:28;;;;;;;2.15;1.13;;;;;;;;;;10369495;28;20085;-60
2024/02/27 01:41:29;;;;;;;3.47;1.13;;;;;;;;;;10369465;28;20030;-60
2024/02/27 01:46:30;;;;;;;1.45;1.02;;;;;;;;;;10369125;28;20029;-60
2024/02/27 01:51:31;;;;;;;1.63;1.00;;;;;;;;;;10368742;28;20030;-59
2024/02/27 01:56:31;;;;;;;1.33;0.90;;;;;;;;;;10367393;28;20377;-60
2024/02/27 02:01:33;;;;;;;0.90;0.90;;;;;;;;;;10368785;28;20385;-59
2024/02/27 02:06:36;;;;;;;1.75;0.88;;;;;;;;;;10368003;28;20042;-59
2024/02/27 02:11:41;;;;;;;3.28;0.98;;;;;;;;;;10368176;28;20045;-59
2024/02/27 02:16:42;;;;;;;0.82;0.82;;;;;;;;;;10367499;28;20088;-59
2024/02/27 02:21:48;;;;;;;0.80;0.80;;;;;;;;;;10365738;28;20470;-59
2024/02/27 02:26:50;;;;;;;3.33;0.93;;;;;;;;;;10367665;28;20037;-59
2024/02/27 02:31:50;;;;;;;1.20;1.10;;;;;;;;;;10367610;28;20453;-59
2024/02/27 02:36:51;;;;;;;2.20;0.98;;;;;;;;;;10367494;28;20029;-59
2024/02/27 02:41:52;;;;;;;1.00;0.88;;;;;;;;;;10367684;28;20030;-59
2024/02/27 02:46:52;;;;;;;0.93;0.93;;;;;;;;;;10367371;28;20029;-60
2024/02/27 02:51:53;;;;;;;1.15;0.80;;;;;;;;;;10367203;28;20026;-61
2024/02/27 02:56:53;;;;;;;1.70;0.90;;;;;;;;;;10367074;28;20030;-61
2024/02/27 03:01:55;;;;;;;2.70;0.85;;;;;;;;;;10366699;28;20026;-62
2024/02/27 03:06:55;;;;;;;0.88;0.88;;;;;;;;;;10367491;28;20594;-61
2024/02/27 03:11:56;;;;;;;0.90;0.80;;;;;;;;;;10366762;28;20250;-59
2024/02/27 03:16:56;;;;;;;0.80;0.80;;;;;;;;;;10366586;28;20034;-59
2024/02/27 03:21:57;;;;;;;1.55;0.77;;;;;;;;;;10366440;28;20033;-59
2024/02/27 03:26:58;;;;;;;1.27;0.90;;;;;;;;;;10366504;28;20022;-59
2024/02/27 03:31:58;;;;;;;0.98;0.88;;;;;;;;;;10367586;28;20029;-59
2024/02/27 03:36:59;;;;;;;1.13;0.80;;;;;;;;;;10374894;28;20037;-58
2024/02/27 03:41:59;;;;;;;0.93;0.80;;;;;;;;;;10374575;28;20034;-58
2024/02/27 03:47:00;;;;;;;1.30;1.00;;;;;;;;;;10373754;28;20030;-58
2024/02/27 03:52:01;;;;;;;1.88;1.05;;;;;;;;;;10374291;28;20389;-59
2024/02/27 03:57:01;;;;;;;0.90;0.90;;;;;;;;;;10373843;28;20033;-60
2024/02/27 04:02:02;;;;;;;0.95;0.80;;;;;;;;;;10371689;28;20062;-60
2024/02/27 04:07:02;;;;;;;2.05;0.93;;;;;;;;;;10373826;28;20051;-59
2024/02/27 04:12:03;;;;;;;0.82;0.80;;;;;;;;;;10372882;28;20049;-60
2024/02/27 04:17:04;;;;;;;0.70;0.70;;;;;;;;;;10373621;28;20113;-59
2024/02/27 04:22:05;;;;;;;0.95;0.80;;;;;;;;;;10372461;28;20467;-60
2024/02/27 04:27:05;;;;;;;1.30;1.00;;;;;;;;;;10372551;28;20469;-59
2024/02/27 04:32:06;;;;;;;1.33;0.82;;;;;;;;;;10371856;28;20542;-59
2024/02/27 04:37:07;;;;;;;1.10;1.00;;;;;;;;;;10371621;28;20563;-59
2024/02/27 04:42:07;;;;;;;0.80;0.80;;;;;;;;;;10371064;28;20026;-59
2024/02/27 04:47:08;;;;;;;0.98;0.90;;;;;;;;;;10369731;28;20480;-59
2024/02/27 04:52:10;;;;;;;0.98;0.80;;;;;;;;;;10371751;28;20029;-59
2024/02/27 04:57:10;;;;;;;0.73;0.70;;;;;;;;;;10369862;28;20025;-59
2024/02/27 05:02:11;;;;;;;2.33;1.00;;;;;;;;;;10370545;28;20029;-60
2024/02/27 05:07:12;;;;;;;0.82;0.80;;;;;;;;;;10370488;28;20039;-59
2024/02/27 05:12:12;;;;;;;1.77;0.80;;;;;;;;;;10370980;28;20028;-59
2024/02/27 05:17:13;;;;;;;0.70;0.70;;;;;;;;;;10370212;28;20030;-59
2024/02/27 05:22:13;;;;;;;0.70;0.70;;;;;;;;;;10370176;28;20091;-60
2024/02/27 05:27:14;;;;;;;4.75;0.80;;;;;;;;;;10370139;28;20028;-60
2024/02/27 05:32:15;;;;;;;1.05;0.82;;;;;;;;;;10370426;28;20082;-61
2024/02/27 05:37:15;;;;;;;0.60;0.60;;;;;;;;;;10370238;28;20045;-61
2024/02/27 05:42:16;;;;;;;0.73;0.73;;;;;;;;;;10369575;28;20030;-61
2024/02/27 05:47:16;;;;;;;1.05;0.88;;;;;;;;;;10368817;28;20030;-61
2024/02/27 05:52:17;;;;;;;0.77;0.77;;;;;;;;;;10368734;28;20406;-62
2024/02/27 05:57:17;;;;;;;0.85;0.85;;;;;;;;;;10368621;28;20394;-62
2024/02/27 06:02:18;;;;;;;1.67;0.80;;;;;;;;;;10368371;28;20559;-62
2024/02/27 06:07:18;;;;;;;1.17;0.80;;;;;;;;;;10366105;28;20508;-61
2024/02/27 06:12:19;;;;;;;0.88;0.70;;;;;;;;;;10367527;28;20022;-61
2024/02/27 06:17:20;;;;;;;0.70;0.70;;;;;;;;;;10367824;28;20030;-61
2024/02/27 06:22:22;;;;;;;0.80;0.80;;;;;;;;;;10367875;28;20401;-60
2024/02/27 06:27:23;;;;;;;1.27;0.85;;;;;;;;;;10367781;28;20034;-61
2024/02/27 06:32:23;;;;;;;0.80;0.80;;;;;;;;;;10366236;28;20050;-60
2024/02/27 06:37:24;;;;;;;2.03;0.90;;;;;;;;;;10367243;28;20060;-60
2024/02/27 06:42:25;;;;;;;1.35;0.90;;;;;;;;;;10367816;28;20025;-60
2024/02/27 06:47:25;;;;;;;5.93;0.90;;;;;;;;;;10367174;28;20037;-61
2024/02/27 06:52:27;;;;;;;0.88;0.80;;;;;;;;;;10367325;28;20091;-61
2024/02/27 06:57:27;;;;;;;0.90;0.90;;;;;;;;;;10367016;28;20041;-61
2024/02/27 07:02:28;;;;;;;0.80;0.80;;;;;;;;;;10366384;28;20045;-61
2024/02/27 07:07:28;;;;;;;17.10;1.48;;;;;;;;;;10365852;28;20600;-61
2024/02/27 07:12:32;;;;;;;13.95;1.08;;;;;;;;;;10367203;28;20041;-61
2024/02/27 07:17:33;;;;;;;4.90;1.30;;;;;;;;;;10366389;28;20024;-60
2024/02/27 07:22:33;;;;;;;7.57;1.60;;;;;;;;;;10366709;28;20045;-60
2024/02/27 07:27:34;;;;;;;6.15;1.25;;;;;;;;;;10367032;28;20053;-60
2024/02/27 07:32:34;;;;;;;5.03;1.20;;;;;;;;;;10366583;28;20049;-59
2024/02/27 07:37:35;;;;;;;6.90;1.25;;;;;;;;;;10366935;28;20034;-60
2024/02/27 07:42:36;;;;;;;1.63;1.10;;;;;;;;;;10366121;28;20034;-59
2024/02/27 07:47:37;;;;;;;10.13;1.17;;;;;;;;;;10366990;28;20034;-60
2024/02/27 07:52:37;;;;;;;4.28;1.30;;;;;;;;;;10366325;28;20393;-60
2024/02/27 07:57:38;;;;;;;5.28;1.10;;;;;;;;;;10366329;28;20032;-60
2024/02/27 08:02:38;;;;;;;3.97;1.05;;;;;;;;;;10365769;28;20057;-60
2024/02/27 08:07:39;;;;;;;2.38;1.10;;;;;;;;;;10366210;28;20440;-59
2024/02/27 08:12:40;;;;;;;5.85;1.60;;;;;;;;;;10366719;28;20022;-60
2024/02/27 08:17:40;;;;;;;7.38;1.40;;;;;;;;;;10366009;28;20022;-60
2024/02/27 08:22:41;;;;;;;6.45;1.30;;;;;;;;;;10373672;28;20088;-60
2024/02/27 08:27:42;;;;;;;3.25;1.30;;;;;;;;;;10373132;28;20030;-60
2024/02/27 08:32:42;;;;;;;4.57;1.92;;;;;;;;;;10372800;28;20022;-59
2024/02/27 08:37:43;;;;;;;1.35;1.23;;;;;;;;;;10372761;28;20044;-60
2024/02/27 08:42:43;;;;;;;1.42;0.93;;;;;;;;;;10371657;28;20033;-60
2024/02/27 08:47:44;;;;;;;2.28;1.50;;;;;;;;;;10371903;28;20450;-60
2024/02/27 08:52:44;;;;;;;2.45;1.27;;;;;;;;;;10371952;28;20037;-60
2024/02/27 08:57:45;;;;;;;2.60;1.10;;;;;;;;;;10371481;28;20429;-60
2024/02/27 09:02:46;;;;;;;3.78;1.40;;;;;;;;;;10371507;28;20480;-63
2024/02/27 09:07:46;;;;;;;1.52;1.20;;;;;;;;;;10371115;28;20077;-60
2024/02/27 09:12:47;;;;;;;1.45;1.20;;;;;;;;;;10370630;28;20025;-62
2024/02/27 09:17:47;;;;;;;2.28;1.20;;;;;;;;;;10370763;28;20413;-60
2024/02/27 09:22:48;;;;;;;1.70;1.20;;;;;;;;;;10370207;28;20038;-61
2024/02/27 09:27:48;;;;;;;1.33;1.20;;;;;;;;;;10370066;28;20029;-60
2024/02/27 09:32:53;;;;;;;1.92;1.30;;;;;;;;;;10369524;28;20022;-60
2024/02/27 09:37:53;;;;;;;1.65;1.33;;;;;;;;;;10370388;28;20083;-61
2024/02/27 09:42:58;;;;;;;1.77;1.23;;;;;;;;;;10369382;28;20502;-59
2024/02/27 09:48:02;;;;;;;4.00;1.30;;;;;;;;;;10369466;28;20025;-61
2024/02/27 09:53:04;;;;;;;3.13;1.30;;;;;;;;;;10368548;28;20049;-61
2024/02/27 09:58:09;;;;;;;2.55;1.17;;;;;;;;;;10368580;28;20030;-60
2024/02/27 10:03:10;;;;;;;2.35;1.20;;;;;;;;;;10368995;28;20073;-64
2024/02/27 10:08:19;;;;;;;2.60;1.20;;;;;;;;;;10367548;28;20058;-60
2024/02/27 10:13:20;;;;;;;1.60;1.40;;;;;;;;;;10367309;28;20053;-59
2024/02/27 10:18:21;;;;;;;3.03;1.33;;;;;;;;;;10369006;28;20048;-59
2024/02/27 10:23:21;;;;;;;1.63;1.52;;;;;;;;;;10368026;28;20029;-60
2024/02/27 10:28:22;;;;;;;1.60;1.23;;;;;;;;;;10368026;28;20121;-60
2024/02/27 10:33:23;;;;;;;5.85;1.35;;;;;;;;;;10366492;28;20030;-59
2024/02/27 10:38:25;;;;;;;1.63;1.20;;;;;;;;;;10366499;28;20033;-59
2024/02/27 10:43:26;;;;;;;2.28;1.38;;;;;;;;;;10366067;28;20105;-59
2024/02/27 10:48:28;;;;;;;1.83;1.50;;;;;;;;;;10366991;28;20042;-60
2024/02/27 10:53:30;;;;;;;2.53;1.60;;;;;;;;;;10367157;28;20029;-59
2024/02/27 10:58:31;;;;;;;3.67;1.30;;;;;;;;;;10366732;28;20038;-60
2024/02/27 11:03:32;;;;;;;3.70;1.27;;;;;;;;;;10365964;28;20124;-59
2024/02/27 11:08:34;;;;;;;1.35;1.20;;;;;;;;;;10366652;28;20436;-63
2024/02/27 11:13:40;;;;;;;2.38;1.33;;;;;;;;;;10366022;28;20037;-59
2024/02/27 11:18:45;;;;;;;1.33;1.10;;;;;;;;;;10365642;28;20478;-60
2024/02/27 11:23:46;;;;;;;2.53;1.30;;;;;;;;;;10365476;28;20477;-60
2024/02/27 11:28:48;;;;;;;2.13;1.50;;;;;;;;;;10365583;28;20022;-60
2024/02/27 11:33:51;;;;;;;1.98;1.33;;;;;;;;;;10365289;28;20109;-59
2024/02/27 11:38:52;;;;;;;1.60;1.50;;;;;;;;;;10366406;28;20026;-60
2024/02/27 11:43:57;;;;;;;1.38;1.00;;;;;;;;;;10365877;28;20033;-59
2024/02/27 11:48:59;;;;;;;2.60;1.20;;;;;;;;;;10366716;28;20041;-62
2024/02/27 11:53:59;;;;;;;2.00;1.27;;;;;;;;;;10368625;28;20029;-59
2024/02/27 11:59:00;;;;;;;3.05;1.40;;;;;;;;;;10373469;28;20381;-59
2024/02/27 12:04:09;;;;;;;1.35;1.20;;;;;;;;;;10373232;28;20100;-60
2024/02/27 12:09:12;;;;;;;;;;;;;;;;;;10372803;28;20119;-60
2024/02/27 12:14:13;;;;;;;1.38;1.10;;;;;;;;;;10371499;28;19914;-59
2024/02/27 12:19:14;;;;;;;1.27;1.10;;;;;;;;;;10372852;28;20038;-60
2024/02/27 12:24:19;;;;;;;1.23;1.15;;;;;;;;;;10372154;28;20136;-59
2024/02/27 12:29:19;;;;;;;1.67;1.15;;;;;;;;;;10371276;28;20489;-60
2024/02/27 12:34:20;;;;;;;1.33;1.23;;;;;;;;;;10371003;28;20030;-59
2024/02/27 12:39:23;;;;;;;2.50;1.40;;;;;;;;;;10369818;28;20029;-63
2024/02/27 12:44:26;;;;;;;2.05;1.40;;;;;;;;;;10371481;28;20489;-60
2024/02/27 12:49:28;;;;;;;0.93;0.90;;;;;;;;;;10372130;28;20030;-60
2024/02/27 12:54:29;;;;;;;1.00;1.00;;;;;;;;;;10369460;28;20117;-59
2024/02/27 12:59:33;;;;;;;1.35;1.25;;;;;;;;;;10370332;28;20347;-60
2024/02/27 13:04:36;;;;;;;1.70;1.30;;;;;;;;;;10369225;28;20050;-61
2024/02/27 13:09:39;;;;;;;1.08;0.98;;;;;;;;;;10371632;28;20030;-60
2024/02/27 13:14:40;;;;;;;1.20;1.10;;;;;;;;;;10370770;28;20037;-60
2024/02/27 13:19:40;;;;;;;1.20;1.10;;;;;;;;;;10370528;28;20366;-60
2024/02/27 13:24:41;;;;;;;1.30;1.20;;;;;;;;;;10370001;28;20036;-60
2024/02/27 13:29:42;;;;;;;1.63;1.30;;;;;;;;;;10369869;28;20025;-59
2024/02/27 13:34:43;;;;;;;1.90;1.20;;;;;;;;;;10369669;28;20057;-60
2024/02/27 13:39:44;;;;;;;1.85;1.17;;;;;;;;;;10369866;28;20025;-60
2024/02/27 13:44:45;;;;;;;1.88;1.35;;;;;;;;;;10369525;28;20373;-60
2024/02/27 13:49:48;;;;;;;1.65;1.10;;;;;;;;;;10366047;28;20026;-60
2024/02/27 13:54:48;;;;;;;1.25;1.15;;;;;;;;;;10368480;28;20042;-60
2024/02/27 13:59:51;;;;;;;1.45;1.30;;;;;;;;;;10368726;28;20083;-59
2024/02/27 14:04:52;;;;;;;3.45;1.20;;;;;;;;;;10368394;28;20125;-60
2024/02/27 14:09:53;;;;;;;4.75;1.50;;;;;;;;;;10368314;28;20022;-60
2024/02/27 14:14:54;;;;;;;1.60;1.20;;;;;;;;;;10367804;28;20482;-60
2024/02/27 14:19:55;;;;;;;1.10;1.10;;;;;;;;;;10368357;28;20045;-61
2024/02/27 14:24:56;;;;;;;2.50;1.48;;;;;;;;;;10368314;28;20034;-59
2024/02/27 14:29:56;;;;;;;1.60;1.30;;;;;;;;;;10367432;28;20021;-59
2024/02/27 14:34:57;;;;;;;1.75;1.30;;;;;;;;;;10368434;28;20270;-59
2024/02/27 14:39:58;;;;;;;1.25;1.17;;;;;;;;;;10367301;28;20018;-61
2024/02/27 14:44:58;;;;;;;1.40;1.15;;;;;;;;;;10364257;28;20116;-61
2024/02/27 14:49:59;;;;;;;1.30;1.08;;;;;;;;;;10366209;28;20381;-62
2024/02/27 14:54:59;;;;;;;1.55;1.10;;;;;;;;;;10366020;28;20034;-62
2024/02/27 15:00:00;;;;;;;1.33;1.23;;;;;;;;;;10365150;28;20493;-59
2024/02/27 15:05:01;;;;;;;1.88;1.23;;;;;;;;;;10364305;28;20386;-60
2024/02/27 15:10:04;;;;;;;1.80;1.38;;;;;;;;;;10366501;28;20030;-62
2024/02/27 15:15:05;;;;;;;3.65;1.20;;;;;;;;;;10367058;28;20029;-59
2024/02/27 15:20:06;;;;;;;5.80;1.38;;;;;;;;;;10366726;28;20378;-59
2024/02/27 15:25:09;;;;;;;1.73;1.10;;;;;;;;;;10367077;28;20033;-59
2024/02/27 15:30:11;;;;;;;2.05;1.38;;;;;;;;;;10372431;28;20038;-60
2024/02/27 15:35:11;;;;;;;1.65;1.55;;;;;;;;;;10375240;28;20022;-59
2024/02/27 15:40:13;;;;;;;2.40;1.55;;;;;;;;;;10374969;28;20470;-60
2024/02/27 15:45:13;;;;;;;1.85;1.55;;;;;;;;;;10373867;28;20093;-60
2024/02/27 15:50:14;;;;;;;2.03;1.40;;;;;;;;;;10374893;28;20029;-59
2024/02/27 15:55:17;;;;;;;4.30;1.30;;;;;;;;;;10374328;28;20088;-59
2024/02/27 16:00:18;;;;;;;3.97;1.50;;;;;;;;;;10373948;28;20428;-60
2024/02/27 16:05:26;;;;;;;2.60;1.30;;;;;;;;;;10371888;28;20103;-59
2024/02/27 16:10:27;;;;;;;2.72;1.60;;;;;;;;;;10373097;28;20025;-59
2024/02/27 16:15:29;;;;;;;2.65;1.65;;;;;;;;;;10372839;28;20034;-59
2024/02/27 16:20:30;;;;;;;3.30;1.42;;;;;;;;;;10373331;28;20037;-59
2024/02/27 16:25:31;;;;;;;3.30;1.73;;;;;;;;;;10372270;28;20038;-59
2024/02/27 16:30:31;;;;;;;2.72;1.75;;;;;;;;;;10372811;28;20026;-59
2024/02/27 16:35:32;;;;;;;4.78;1.75;;;;;;;;;;10372672;28;20030;-59
2024/02/27 16:40:32;;;;;;;1.73;1.30;;;;;;;;;;10370528;28;20032;-59
2024/02/27 16:45:33;;;;;;;2.85;1.52;;;;;;;;;;10371870;28;20069;-59
2024/02/27 16:50:34;;;;;;;3.72;1.38;;;;;;;;;;10372770;28;20343;-60
2024/02/27 16:55:36;;;;;;;2.22;1.30;;;;;;;;;;10371418;28;20026;-60
2024/02/27 17:00:36;;;;;;;3.03;1.60;;;;;;;;;;10370368;28;20077;-60
2024/02/27 17:05:37;;;;;;;2.85;1.67;;;;;;;;;;10386951;23;20112;-50
2024/02/27 17:10:39;;;;;;;1.90;1.55;;;;;;;;;;10376284;28;20036;-49
2024/02/27 17:15:40;;;;;;;2.35;1.60;;;;;;;;;;10370222;28;20056;-48
2024/02/27 17:20:40;;;;;;;3.00;1.55;;;;;;;;;;10370526;28;20037;-50
2024/02/27 17:25:43;;;;;;;3.40;1.95;;;;;;;;;;10369850;28;20030;-51
2024/02/27 17:30:44;;;;;;;4.68;1.73;;;;;;;;;;10370311;28;20397;-58
2024/02/27 17:35:44;;;;;;;7.90;1.88;;;;;;;;;;10369743;28;20034;-55
2024/02/27 17:40:45;;;;;;;4.18;1.90;;;;;;;;;;10365719;28;20026;-55
2024/02/27 17:45:48;;;;;;;10.13;2.05;;;;;;;;;;10368665;28;20052;-60
2024/02/27 17:50:49;;;;;;;2.28;1.75;;;;;;;;;;10369094;28;20018;-50
2024/02/27 17:55:49;;;;;;;2.13;1.70;;;;;;;;;;10368068;28;20048;-60
2024/02/27 18:00:50;;;;;;;5.70;1.92;;;;;;;;;;10366306;28;20122;-53
2024/02/27 18:05:50;;;;;;;2.95;1.70;;;;;;;;;;10365079;28;20061;-55
2024/02/27 18:10:51;;;;;;;3.90;2.05;;;;;;;;;;10366284;28;20056;-53
2024/02/27 18:15:52;;;;;;;3.10;1.63;;;;;;;;;;10367494;28;20080;-57
2024/02/27 18:20:53;;;;;;;5.35;1.55;;;;;;;;;;10367090;28;20038;-58
2024/02/27 18:25:53;;;;;;;3.78;1.58;;;;;;;;;;10368584;28;20033;-56
2024/02/27 18:30:54;;;;;;;1.95;1.60;;;;;;;;;;10367381;28;20061;-55
2024/02/27 18:35:55;;;;;;;4.07;1.92;;;;;;;;;;10367096;28;20022;-55
2024/02/27 18:40:56;;;;;;;9.15;1.83;;;;;;;;;;10367165;28;20269;-58
2024/02/27 18:45:57;;;;;;;2.88;1.90;;;;;;;;;;10367700;28;20037;-53
2024/02/27 18:50:58;;;;;;;2.80;1.65;;;;;;;;;;10367773;28;20030;-56
2024/02/27 18:55:58;;;;;;;2.08;1.67;;;;;;;;;;10367299;28;20041;-55
2024/02/27 19:01:00;;;;;;;3.75;1.75;;;;;;;;;;10366932;28;20056;-59
2024/02/27 19:06:04;;;;;;;3.60;1.80;;;;;;;;;;10366177;28;20057;-58
2024/02/27 19:11:06;;;;;;;2.85;1.88;;;;;;;;;;10367278;28;20026;-56
2024/02/27 19:16:07;;;;;;;1.90;1.70;;;;;;;;;;10366668;28;20389;-58
2024/02/27 19:21:07;;;;;;;10.48;2.05;;;;;;;;;;10367062;28;20037;-58
2024/02/27 19:26:08;;;;;;;1.90;1.58;;;;;;;;;;10366718;28;20041;-60
2024/02/27 19:31:12;;;;;;;3.65;2.30;;;;;;;;;;10367280;28;20030;-55
2024/02/27 19:36:13;;;;;;;4.32;2.00;;;;;;;;;;10366955;28;20022;-56
2024/02/27 19:41:13;;;;;;;3.75;1.88;;;;;;;;;;10366432;28;20389;-58
2024/02/27 19:46:17;;;;;;;5.10;2.22;;;;;;;;;;10366726;28;20034;-54
2024/02/27 19:51:19;;;;;;;3.58;2.00;;;;;;;;;;10366273;28;20374;-58
2024/02/27 19:56:20;;;;;;;3.95;1.80;;;;;;;;;;10366026;28;20048;-55
2024/02/27 20:01:21;;;;;;;10.95;2.13;;;;;;;;;;10366308;28;20025;-57
2024/02/27 20:06:23;;;;;;;3.80;2.10;;;;;;;;;;10365402;28;20050;-60
2024/02/27 20:11:24;;;;;;;6.05;2.08;;;;;;;;;;10365823;28;20080;-60
2024/02/27 20:16:24;;;;;;;4.43;1.83;;;;;;;;;;10371333;28;20076;-59
2024/02/27 20:21:25;;;;;;;4.63;2.10;;;;;;;;;;10372704;28;20022;-60
2024/02/27 20:26:26;;;;;;;3.72;1.85;;;;;;;;;;10373197;28;20034;-60
2024/02/27 20:31:26;;;;;;;2.83;1.95;;;;;;;;;;10373082;28;20494;-60
2024/02/27 20:36:28;;;;;;;2.85;1.95;;;;;;;;;;10372639;28;20037;-60
2024/02/27 20:41:29;;;;;;;2.95;1.75;;;;;;;;;;10372204;28;20034;-57
2024/02/27 20:46:30;;;;;;;4.15;1.75;;;;;;;;;;10372272;28;20026;-58
2024/02/27 20:51:32;;;;;;;3.70;1.80;;;;;;;;;;10371869;28;20041;-60
2024/02/27 20:56:32;;;;;;;2.38;1.88;;;;;;;;;;10371574;28;20340;-54
2024/02/27 21:01:33;;;;;;;5.93;1.98;;;;;;;;;;10372611;28;20265;-54
2024/02/27 21:06:33;;;;;;;4.28;1.90;;;;;;;;;;10370965;28;20046;-59
2024/02/27 21:11:34;;;;;;;2.50;1.85;;;;;;;;;;10371389;28;20044;-54
2024/02/27 21:16:35;;;;;;;4.53;1.90;;;;;;;;;;10369550;28;20608;-61
2024/02/27 21:21:35;;;;;;;2.42;1.83;;;;;;;;;;10370642;28;20030;-57
2024/02/27 21:26:36;;;;;;;2.38;1.50;;;;;;;;;;10369811;28;20242;-59
2024/02/27 21:31:36;;;;;;;4.32;1.75;;;;;;;;;;10370397;28;20033;-53
2024/02/27 21:36:37;;;;;;;3.85;1.80;;;;;;;;;;10370046;28;20038;-57
2024/02/27 21:41:37;;;;;;;1.77;1.67;;;;;;;;;;10369779;28;20021;-57
2024/02/27 21:46:38;;;;;;;5.90;1.80;;;;;;;;;;10369228;28;20037;-58
2024/02/27 21:51:39;;;;;;;3.00;1.50;;;;;;;;;;10370091;28;20041;-57
2024/02/27 21:56:39;;;;;;;2.78;1.90;;;;;;;;;;10369586;28;20022;-52
2024/02/27 22:01:40;;;;;;;2.38;1.52;;;;;;;;;;10369648;28;20022;-56
2024/02/27 22:06:40;;;;;;;4.45;1.63;;;;;;;;;;10368857;28;20528;-55
2024/02/27 22:11:41;;;;;;;2.25;1.50;;;;;;;;;;10369575;28;20037;-58
2024/02/27 22:16:41;;;;;;;3.95;1.83;;;;;;;;;;10369108;28;20030;-60
2024/02/27 22:21:45;;;;;;;2.30;1.60;;;;;;;;;;10368033;28;20022;-58
2024/02/27 22:26:46;;;;;;;2.65;1.42;;;;;;;;;;10367279;28;20030;-53
2024/02/27 22:31:47;;;;;;;2.83;1.70;;;;;;;;;;10368423;28;20026;-55
2024/02/27 22:36:48;;;;;;;4.45;1.60;;;;;;;;;;10364443;28;20085;-56
2024/02/27 22:41:49;;;;;;;4.95;2.03;;;;;;;;;;10366987;28;20149;-54
2024/02/27 22:46:49;;;;;;;8.88;2.67;;;;;;;;;;10367940;28;20030;-53
2024/02/27 22:51:50;;;;;;;4.70;1.95;;;;;;;;;;10368041;28;20029;-54
2024/02/27 22:56:50;;;;;;;9.65;2.42;;;;;;;;;;10367072;28;20026;-51
2024/02/27 23:01:52;;;;;;;9.77;2.53;;;;;;;;;;10367182;28;20022;-52
2024/02/27 23:06:53;;;;;;;6.05;2.30;;;;;;;;;;10366637;28;20128;-54
2024/02/27 23:11:53;;;;;;;6.75;2.05;;;;;;;;;;10367003;28;20092;-54
2024/02/27 23:16:54;;;;;;;6.88;2.33;;;;;;;;;;10367083;28;20450;-55
2024/02/27 23:21:55;;;;;;;4.90;2.83;;;;;;;;;;10366609;28;20026;-56
2024/02/27 23:26:55;;;;;;;6.15;2.17;;;;;;;;;;10366519;28;20042;-57
2024/02/27 23:31:56;;;;;;;4.45;2.05;;;;;;;;;;10365466;28;20033;-59
2024/02/27 23:36:56;;;;;;;4.20;2.05;;;;;;;;;;10366303;28;20076;-58
2024/02/27 23:41:57;;;;;;;4.85;2.30;;;;;;;;;;10365546;28;20049;-58
2024/02/27 23:46:57;;;;;;;3.28;1.80;;;;;;;;;;10366412;28;20057;-62
2024/02/27 23:51:58;;;;;;;4.72;1.75;;;;;;;;;;10372934;28;20032;-58
2024/02/27 23:56:59;;;;;;;3.00;1.50;;;;;;;;;;10373620;28;20048;-58
